sensor_id;sensor_type;location;lat;lon;timestamp;pressure;altitude;pressure_sealevel;temperature;humidity
1207;BME280;593;53.184;8.216;2024-03-06T00:02:04;101579.50;;;7.44;90.75
1207;BME280;593;53.184;8.216;2024-03-06T00:04:30;101580.78;;;7.41;90.99
1207;BME280;593;53.184;8.216;2024-03-06T00:06:55;101584.53;;;7.40;90.23
1207;BME280;593;53.184;8.216;2024-03-06T00:09:23;101586.09;;;7.36;91.06
1207;BME280;593;53.184;8.216;2024-03-06T00:11:48;101590.78;;;7.41;90.70
1207;BME280;593;53.184;8.216;2024-03-06T00:14:16;101601.59;;;7.41;91.35
1207;BME280;593;53.184;8.216;2024-03-06T00:16:42;101589.38;;;7.38;90.40
1207;BME280;593;53.184;8.216;2024-03-06T00:19:08;101589.94;;;7.40;91.12
1207;BME280;593;53.184;8.216;2024-03-06T00:21:33;101596.41;;;7.39;91.37
1207;BME280;593;53.184;8.216;2024-03-06T00:23:59;101597.03;;;7.41;91.38
1207;BME280;593;53.184;8.216;2024-03-06T00:26:24;101593.72;;;7.39;90.88
1207;BME280;593;53.184;8.216;2024-03-06T00:28:49;101601.25;;;7.37;92.13
1207;BME280;593;53.184;8.216;2024-03-06T00:31:15;101602.06;;;7.38;92.37
1207;BME280;593;53.184;8.216;2024-03-06T00:33:41;101606.91;;;7.36;92.00
1207;BME280;593;53.184;8.216;2024-03-06T00:36:07;101601.25;;;7.37;91.81
1207;BME280;593;53.184;8.216;2024-03-06T00:38:33;101595.72;;;7.32;91.49
1207;BME280;593;53.184;8.216;2024-03-06T00:40:58;101601.97;;;7.33;91.94
1207;BME280;593;53.184;8.216;2024-03-06T00:43:24;101599.00;;;7.34;92.02
1207;BME280;593;53.184;8.216;2024-03-06T00:45:49;101620.19;;;7.37;91.02
1207;BME280;593;53.184;8.216;2024-03-06T00:48:16;101624.56;;;7.38;91.94
1207;BME280;593;53.184;8.216;2024-03-06T00:50:41;101623.16;;;7.36;91.45
1207;BME280;593;53.184;8.216;2024-03-06T00:53:07;101621.28;;;7.36;92.08
1207;BME280;593;53.184;8.216;2024-03-06T00:55:32;101629.38;;;7.36;91.51
1207;BME280;593;53.184;8.216;2024-03-06T00:57:57;101633.72;;;7.37;92.06
1207;BME280;593;53.184;8.216;2024-03-06T01:00:23;101630.44;;;7.35;92.02
1207;BME280;593;53.184;8.216;2024-03-06T01:02:48;101634.69;;;7.31;91.90
1207;BME280;593;53.184;8.216;2024-03-06T01:05:14;101642.31;;;7.34;91.90
1207;BME280;593;53.184;8.216;2024-03-06T01:07:39;101644.44;;;7.32;92.05
1207;BME280;593;53.184;8.216;2024-03-06T01:10:06;101641.16;;;7.30;91.80
1207;BME280;593;53.184;8.216;2024-03-06T01:12:32;101645.00;;;7.34;92.57
1207;BME280;593;53.184;8.216;2024-03-06T01:14:57;101656.44;;;7.36;92.83
1207;BME280;593;53.184;8.216;2024-03-06T01:17:23;101655.84;;;7.34;92.54
1207;BME280;593;53.184;8.216;2024-03-06T01:19:49;101657.50;;;7.35;91.81
1207;BME280;593;53.184;8.216;2024-03-06T01:22:14;101655.84;;;7.34;92.65
1207;BME280;593;53.184;8.216;2024-03-06T01:24:40;101651.50;;;7.33;92.28
1207;BME280;593;53.184;8.216;2024-03-06T01:27:06;101645.72;;;7.30;91.77
1207;BME280;593;53.184;8.216;2024-03-06T01:29:31;101657.13;;;7.32;92.84
1207;BME280;593;53.184;8.216;2024-03-06T01:31:57;101650.69;;;7.33;93.04
1207;BME280;593;53.184;8.216;2024-03-06T01:34:23;101649.84;;;7.32;92.27
1207;BME280;593;53.184;8.216;2024-03-06T01:36:48;101655.84;;;7.34;92.12
1207;BME280;593;53.184;8.216;2024-03-06T01:39:14;101647.13;;;7.32;92.83
1207;BME280;593;53.184;8.216;2024-03-06T01:41:46;101647.97;;;7.33;92.57
1207;BME280;593;53.184;8.216;2024-03-06T01:44:12;101661.25;;;7.34;93.32
1207;BME280;593;53.184;8.216;2024-03-06T01:46:38;101660.66;;;7.32;92.90
1207;BME280;593;53.184;8.216;2024-03-06T01:49:04;101667.16;;;7.31;92.53
1207;BME280;593;53.184;8.216;2024-03-06T01:51:29;101663.63;;;7.31;93.23
1207;BME280;593;53.184;8.216;2024-03-06T01:53:56;101664.66;;;7.30;93.04
1207;BME280;593;53.184;8.216;2024-03-06T01:56:22;101654.31;;;7.27;92.73
1207;BME280;593;53.184;8.216;2024-03-06T01:58:48;101659.38;;;7.23;93.21
1207;BME280;593;53.184;8.216;2024-03-06T02:01:15;101664.66;;;7.30;93.64
1207;BME280;593;53.184;8.216;2024-03-06T02:03:41;101669.50;;;7.28;93.74
1207;BME280;593;53.184;8.216;2024-03-06T02:06:09;101666.53;;;7.29;93.02
1207;BME280;593;53.184;8.216;2024-03-06T02:08:35;101664.09;;;7.28;93.30
1207;BME280;593;53.184;8.216;2024-03-06T02:11:00;101655.38;;;7.26;93.35
1207;BME280;593;53.184;8.216;2024-03-06T02:13:29;101653.84;;;7.30;93.38
1207;BME280;593;53.184;8.216;2024-03-06T02:15:54;101655.16;;;7.27;93.69
1207;BME280;593;53.184;8.216;2024-03-06T02:18:20;101665.13;;;7.27;94.39
1207;BME280;593;53.184;8.216;2024-03-06T02:20:46;101660.34;;;7.29;94.50
1207;BME280;593;53.184;8.216;2024-03-06T02:23:12;101658.94;;;7.26;93.66
1207;BME280;593;53.184;8.216;2024-03-06T02:25:40;101656.44;;;7.25;94.24
1207;BME280;593;53.184;8.216;2024-03-06T02:28:05;101662.44;;;7.27;94.15
1207;BME280;593;53.184;8.216;2024-03-06T02:30:31;101665.97;;;7.27;94.20
1207;BME280;593;53.184;8.216;2024-03-06T02:33:02;101665.75;;;7.29;93.75
1207;BME280;593;53.184;8.216;2024-03-06T02:35:29;101644.78;;;7.24;94.26
1207;BME280;593;53.184;8.216;2024-03-06T02:37:54;101659.72;;;7.27;93.63
1207;BME280;593;53.184;8.216;2024-03-06T02:40:22;101649.03;;;7.20;93.90
1207;BME280;593;53.184;8.216;2024-03-06T02:42:47;101652.19;;;7.17;93.83
1207;BME280;593;53.184;8.216;2024-03-06T02:45:13;101645.75;;;7.18;93.26
1207;BME280;593;53.184;8.216;2024-03-06T02:47:39;101646.78;;;7.17;93.26
1207;BME280;593;53.184;8.216;2024-03-06T02:50:05;101640.56;;;7.17;94.46
1207;BME280;593;53.184;8.216;2024-03-06T02:52:30;101647.03;;;7.16;94.13
1207;BME280;593;53.184;8.216;2024-03-06T02:54:56;101655.16;;;7.16;94.63
1207;BME280;593;53.184;8.216;2024-03-06T02:57:22;101663.03;;;7.17;94.62
1207;BME280;593;53.184;8.216;2024-03-06T02:59:47;101660.56;;;7.16;94.05
1207;BME280;593;53.184;8.216;2024-03-06T03:02:13;101663.84;;;7.18;94.47
1207;BME280;593;53.184;8.216;2024-03-06T03:04:38;101659.03;;;7.08;94.53
1207;BME280;593;53.184;8.216;2024-03-06T03:07:03;101678.22;;;7.18;95.04
1207;BME280;593;53.184;8.216;2024-03-06T03:09:30;101663.03;;;7.17;94.51
1207;BME280;593;53.184;8.216;2024-03-06T03:11:56;101674.69;;;7.18;94.37
1207;BME280;593;53.184;8.216;2024-03-06T03:14:22;101675.72;;;7.17;94.65
1207;BME280;593;53.184;8.216;2024-03-06T03:16:48;101665.72;;;7.17;95.11
1207;BME280;593;53.184;8.216;2024-03-06T03:19:13;101680.56;;;7.15;95.20
1207;BME280;593;53.184;8.216;2024-03-06T03:21:43;101675.50;;;7.18;94.96
1207;BME280;593;53.184;8.216;2024-03-06T03:24:08;101673.84;;;7.17;94.34
1207;BME280;593;53.184;8.216;2024-03-06T03:26:34;101668.31;;;7.12;94.40
1207;BME280;593;53.184;8.216;2024-03-06T03:28:59;101668.09;;;7.14;94.37
1207;BME280;593;53.184;8.216;2024-03-06T03:31:25;101674.91;;;7.16;94.69
1207;BME280;593;53.184;8.216;2024-03-06T03:33:50;101680.56;;;7.15;94.28
1207;BME280;593;53.184;8.216;2024-03-06T03:36:15;101689.50;;;7.15;94.97
1207;BME280;593;53.184;8.216;2024-03-06T03:38:44;101687.84;;;7.14;94.51
1207;BME280;593;53.184;8.216;2024-03-06T03:41:10;101695.72;;;7.16;95.18
1207;BME280;593;53.184;8.216;2024-03-06T03:43:38;101696.78;;;7.15;95.45
1207;BME280;593;53.184;8.216;2024-03-06T03:46:04;101694.06;;;7.15;95.09
1207;BME280;593;53.184;8.216;2024-03-06T03:48:30;101693.84;;;7.16;95.39
1207;BME280;593;53.184;8.216;2024-03-06T03:50:56;101697.97;;;7.19;94.65
1207;BME280;593;53.184;8.216;2024-03-06T03:53:21;101699.84;;;7.18;95.30
1207;BME280;593;53.184;8.216;2024-03-06T03:55:47;101697.97;;;7.19;94.48
1207;BME280;593;53.184;8.216;2024-03-06T03:58:12;101700.44;;;7.20;93.72
1207;BME280;593;53.184;8.216;2024-03-06T04:00:38;101708.19;;;7.17;94.61
1207;BME280;593;53.184;8.216;2024-03-06T04:03:03;101705.47;;;7.17;94.57
1207;BME280;593;53.184;8.216;2024-03-06T04:05:29;101709.00;;;7.17;94.91
1207;BME280;593;53.184;8.216;2024-03-06T04:07:54;101705.72;;;7.15;94.93
1207;BME280;593;53.184;8.216;2024-03-06T04:10:20;101702.91;;;7.10;94.56
1207;BME280;593;53.184;8.216;2024-03-06T04:12:46;101704.44;;;7.18;94.42
1207;BME280;593;53.184;8.216;2024-03-06T04:15:11;101711.13;;;7.15;94.23
1207;BME280;593;53.184;8.216;2024-03-06T04:17:37;101711.72;;;7.17;94.47
1207;BME280;593;53.184;8.216;2024-03-06T04:20:02;101712.44;;;7.13;94.15
1207;BME280;593;53.184;8.216;2024-03-06T04:22:29;101714.66;;;7.16;94.09
1207;BME280;593;53.184;8.216;2024-03-06T04:24:55;101723.63;;;7.16;93.93
1207;BME280;593;53.184;8.216;2024-03-06T04:27:21;101721.97;;;7.15;93.96
1207;BME280;593;53.184;8.216;2024-03-06T04:29:47;101723.00;;;7.14;94.80
1207;BME280;593;53.184;8.216;2024-03-06T04:32:12;101728.19;;;7.16;94.80
1207;BME280;593;53.184;8.216;2024-03-06T04:34:37;101710.75;;;7.11;94.88
1207;BME280;593;53.184;8.216;2024-03-06T04:37:03;101710.44;;;7.08;93.67
1207;BME280;593;53.184;8.216;2024-03-06T04:39:29;101718.88;;;7.11;93.88
1207;BME280;593;53.184;8.216;2024-03-06T04:41:54;101719.13;;;7.10;93.41
1207;BME280;593;53.184;8.216;2024-03-06T04:44:20;101721.25;;;7.08;94.14
1207;BME280;593;53.184;8.216;2024-03-06T04:46:45;101725.81;;;7.07;94.04
1207;BME280;593;53.184;8.216;2024-03-06T04:49:10;101736.66;;;7.07;94.28
1207;BME280;593;53.184;8.216;2024-03-06T04:51:36;101741.81;;;7.09;94.35
1207;BME280;593;53.184;8.216;2024-03-06T04:54:01;101740.19;;;7.08;93.51
1207;BME280;593;53.184;8.216;2024-03-06T04:56:27;101746.88;;;7.05;92.87
1207;BME280;593;53.184;8.216;2024-03-06T04:58:52;101747.91;;;7.04;93.95
1207;BME280;593;53.184;8.216;2024-03-06T05:01:18;101747.34;;;7.02;94.04
1207;BME280;593;53.184;8.216;2024-03-06T05:03:44;101742.75;;;7.03;93.00
1207;BME280;593;53.184;8.216;2024-03-06T05:06:09;101742.50;;;7.04;93.34
1207;BME280;593;53.184;8.216;2024-03-06T05:08:35;101733.94;;;6.96;94.21
1207;BME280;593;53.184;8.216;2024-03-06T05:11:01;101741.69;;;7.04;94.01
1207;BME280;593;53.184;8.216;2024-03-06T05:13:27;101723.69;;;6.86;94.38
1207;BME280;593;53.184;8.216;2024-03-06T05:15:52;101753.56;;;7.03;93.60
1207;BME280;593;53.184;8.216;2024-03-06T05:18:20;101756.28;;;7.03;94.22
1207;BME280;593;53.184;8.216;2024-03-06T05:20:46;101759.44;;;7.00;94.65
1207;BME280;593;53.184;8.216;2024-03-06T05:23:11;101767.56;;;7.00;94.43
1207;BME280;593;53.184;8.216;2024-03-06T05:25:38;101770.25;;;7.00;94.91
1207;BME280;593;53.184;8.216;2024-03-06T05:28:04;101770.72;;;6.97;94.58
1207;BME280;593;53.184;8.216;2024-03-06T05:30:29;101774.00;;;6.99;95.17
1207;BME280;593;53.184;8.216;2024-03-06T05:32:55;101774.00;;;6.99;94.01
1207;BME280;593;53.184;8.216;2024-03-06T05:35:21;101775.16;;;6.91;94.96
1207;BME280;593;53.184;8.216;2024-03-06T05:37:46;101782.59;;;6.96;94.43
1207;BME280;593;53.184;8.216;2024-03-06T05:40:12;101787.19;;;6.95;94.59
1207;BME280;593;53.184;8.216;2024-03-06T05:42:38;101772.69;;;6.90;94.37
1207;BME280;593;53.184;8.216;2024-03-06T05:45:04;101781.28;;;6.87;94.37
1207;BME280;593;53.184;8.216;2024-03-06T05:47:36;101804.91;;;6.91;94.63
1207;BME280;593;53.184;8.216;2024-03-06T05:50:02;101803.88;;;6.92;94.52
1207;BME280;593;53.184;8.216;2024-03-06T05:52:31;101815.28;;;6.94;94.98
1207;BME280;593;53.184;8.216;2024-03-06T05:54:57;101807.16;;;6.94;94.20
1207;BME280;593;53.184;8.216;2024-03-06T05:57:25;101812.22;;;6.91;94.40
1207;BME280;593;53.184;8.216;2024-03-06T05:59:51;101821.13;;;6.91;94.03
1207;BME280;593;53.184;8.216;2024-03-06T06:02:16;101823.63;;;6.93;95.52
1207;BME280;593;53.184;8.216;2024-03-06T06:04:45;101820.94;;;6.93;95.06
1207;BME280;593;53.184;8.216;2024-03-06T06:07:10;101814.31;;;6.89;95.59
1207;BME280;593;53.184;8.216;2024-03-06T06:09:35;101819.84;;;6.94;95.20
1207;BME280;593;53.184;8.216;2024-03-06T06:12:01;101827.16;;;6.93;95.17
1207;BME280;593;53.184;8.216;2024-03-06T06:14:26;101821.97;;;6.92;95.46
1207;BME280;593;53.184;8.216;2024-03-06T06:16:56;101831.75;;;6.93;95.07
1207;BME280;593;53.184;8.216;2024-03-06T06:19:21;101826.78;;;6.90;94.86
1207;BME280;593;53.184;8.216;2024-03-06T06:21:47;101830.31;;;6.90;95.25
1207;BME280;593;53.184;8.216;2024-03-06T06:24:13;101832.56;;;6.93;94.29
1207;BME280;593;53.184;8.216;2024-03-06T06:26:39;101833.03;;;6.90;95.41
1207;BME280;593;53.184;8.216;2024-03-06T06:29:04;101839.25;;;6.91;95.22
1207;BME280;593;53.184;8.216;2024-03-06T06:31:30;101849.00;;;6.92;95.09
1207;BME280;593;53.184;8.216;2024-03-06T06:33:55;101854.22;;;6.93;94.64
1207;BME280;593;53.184;8.216;2024-03-06T06:36:21;101860.06;;;6.90;95.01
1207;BME280;593;53.184;8.216;2024-03-06T06:38:47;101841.00;;;6.85;94.66
1207;BME280;593;53.184;8.216;2024-03-06T06:41:17;101865.81;;;6.94;94.32
1207;BME280;593;53.184;8.216;2024-03-06T06:43:42;101861.50;;;6.93;94.54
1207;BME280;593;53.184;8.216;2024-03-06T06:46:08;101861.59;;;6.86;95.35
1207;BME280;593;53.184;8.216;2024-03-06T06:48:33;101873.34;;;6.92;94.64
1207;BME280;593;53.184;8.216;2024-03-06T06:51:02;101877.91;;;6.91;94.89
1207;BME280;593;53.184;8.216;2024-03-06T06:53:29;101873.34;;;6.92;95.25
1207;BME280;593;53.184;8.216;2024-03-06T06:55:55;101877.72;;;6.93;94.65
1207;BME280;593;53.184;8.216;2024-03-06T06:58:20;101876.63;;;6.94;95.20
1207;BME280;593;53.184;8.216;2024-03-06T07:00:45;101886.03;;;6.91;95.77
1207;BME280;593;53.184;8.216;2024-03-06T07:03:11;101887.69;;;6.92;95.59
1207;BME280;593;53.184;8.216;2024-03-06T07:05:36;101880.88;;;6.90;95.47
1207;BME280;593;53.184;8.216;2024-03-06T07:08:05;101877.19;;;6.84;94.85
1207;BME280;593;53.184;8.216;2024-03-06T07:10:31;101877.66;;;6.81;95.39
1207;BME280;593;53.184;8.216;2024-03-06T07:12:56;101881.31;;;6.87;95.44
1207;BME280;593;53.184;8.216;2024-03-06T07:15:22;101878.63;;;6.87;96.24
1207;BME280;593;53.184;8.216;2024-03-06T07:17:47;101895.91;;;6.86;95.65
1207;BME280;593;53.184;8.216;2024-03-06T07:20:13;101884.13;;;6.80;95.55
1207;BME280;593;53.184;8.216;2024-03-06T07:22:39;101885.53;;;6.83;95.57
1207;BME280;593;53.184;8.216;2024-03-06T07:25:05;101889.28;;;6.82;95.51
1207;BME280;593;53.184;8.216;2024-03-06T07:27:31;101904.22;;;6.84;95.60
1207;BME280;593;53.184;8.216;2024-03-06T07:29:56;101903.44;;;6.84;95.95
1207;BME280;593;53.184;8.216;2024-03-06T07:32:21;101900.50;;;6.85;96.63
1207;BME280;593;53.184;8.216;2024-03-06T07:34:47;101901.31;;;6.86;96.68
1207;BME280;593;53.184;8.216;2024-03-06T07:37:12;101909.44;;;6.86;95.85
1207;BME280;593;53.184;8.216;2024-03-06T07:39:39;101914.25;;;6.84;96.97
1207;BME280;593;53.184;8.216;2024-03-06T07:42:05;101919.03;;;6.82;97.15
1207;BME280;593;53.184;8.216;2024-03-06T07:44:30;101919.88;;;6.82;96.57
1207;BME280;593;53.184;8.216;2024-03-06T07:46:55;101916.81;;;6.79;96.59
1207;BME280;593;53.184;8.216;2024-03-06T07:49:21;101934.22;;;6.83;96.18
1207;BME280;593;53.184;8.216;2024-03-06T07:51:49;101935.88;;;6.84;95.73
1207;BME280;593;53.184;8.216;2024-03-06T07:54:15;101930.22;;;6.85;95.93
1207;BME280;593;53.184;8.216;2024-03-06T07:56:40;101927.63;;;6.79;95.81
1207;BME280;593;53.184;8.216;2024-03-06T07:59:06;101943.16;;;6.83;96.34
1207;BME280;593;53.184;8.216;2024-03-06T08:01:31;101942.09;;;6.84;96.60
1207;BME280;593;53.184;8.216;2024-03-06T08:03:58;101929.50;;;6.78;96.96
1207;BME280;593;53.184;8.216;2024-03-06T08:06:23;101944.94;;;6.89;97.96
1207;BME280;593;53.184;8.216;2024-03-06T08:08:50;101952.84;;;6.91;97.59
1207;BME280;593;53.184;8.216;2024-03-06T08:11:17;101959.06;;;6.91;96.66
1207;BME280;593;53.184;8.216;2024-03-06T08:13:45;101957.19;;;6.92;97.16
1207;BME280;593;53.184;8.216;2024-03-06T08:16:11;101958.84;;;6.93;97.99
1207;BME280;593;53.184;8.216;2024-03-06T08:18:36;101946.31;;;6.80;97.54
1207;BME280;593;53.184;8.216;2024-03-06T08:21:02;101969.81;;;6.98;96.28
1207;BME280;593;53.184;8.216;2024-03-06T08:23:35;101984.63;;;6.95;96.24
1207;BME280;593;53.184;8.216;2024-03-06T08:26:00;101978.66;;;6.87;96.57
1207;BME280;593;53.184;8.216;2024-03-06T08:28:26;101975.81;;;6.82;96.10
1207;BME280;593;53.184;8.216;2024-03-06T08:30:52;101996.31;;;6.89;96.59
1207;BME280;593;53.184;8.216;2024-03-06T08:33:17;101989.72;;;6.85;97.20
1207;BME280;593;53.184;8.216;2024-03-06T08:35:43;101992.19;;;6.87;97.13
1207;BME280;593;53.184;8.216;2024-03-06T08:38:08;101994.44;;;6.90;97.26
1207;BME280;593;53.184;8.216;2024-03-06T08:40:34;102000.44;;;6.92;98.20
1207;BME280;593;53.184;8.216;2024-03-06T08:42:59;102000.69;;;6.90;97.64
1207;BME280;593;53.184;8.216;2024-03-06T08:45:25;102004.81;;;6.93;98.28
1207;BME280;593;53.184;8.216;2024-03-06T08:47:50;102011.81;;;7.00;98.83
1207;BME280;593;53.184;8.216;2024-03-06T08:50:19;102004.69;;;7.06;98.15
1207;BME280;593;53.184;8.216;2024-03-06T08:52:44;102006.09;;;7.08;98.50
1207;BME280;593;53.184;8.216;2024-03-06T08:55:11;101996.09;;;7.09;98.71
1207;BME280;593;53.184;8.216;2024-03-06T08:57:37;102007.69;;;7.16;98.32
1207;BME280;593;53.184;8.216;2024-03-06T09:00:04;102012.41;;;7.21;98.25
1207;BME280;593;53.184;8.216;2024-03-06T09:02:29;102011.72;;;7.25;98.54
1207;BME280;593;53.184;8.216;2024-03-06T09:04:55;102022.09;;;7.28;98.64
1207;BME280;593;53.184;8.216;2024-03-06T09:07:21;102024.56;;;7.30;98.29
1207;BME280;593;53.184;8.216;2024-03-06T09:09:49;102021.41;;;7.33;98.81
1207;BME280;593;53.184;8.216;2024-03-06T09:12:15;102028.47;;;7.34;97.96
1207;BME280;593;53.184;8.216;2024-03-06T09:14:41;102028.84;;;7.37;97.87
1207;BME280;593;53.184;8.216;2024-03-06T09:17:06;102023.41;;;7.37;97.58
1207;BME280;593;53.184;8.216;2024-03-06T09:19:34;102026.72;;;7.39;97.77
1207;BME280;593;53.184;8.216;2024-03-06T09:22:00;102021.69;;;7.43;97.17
1207;BME280;593;53.184;8.216;2024-03-06T09:24:26;102019.81;;;7.43;97.76
1207;BME280;593;53.184;8.216;2024-03-06T09:26:52;102028.28;;;7.47;98.18
1207;BME280;593;53.184;8.216;2024-03-06T09:29:18;102028.66;;;7.50;98.38
1207;BME280;593;53.184;8.216;2024-03-06T09:31:44;102022.81;;;7.53;97.99
1207;BME280;593;53.184;8.216;2024-03-06T09:34:11;102029.41;;;7.57;97.87
1207;BME280;593;53.184;8.216;2024-03-06T09:36:41;102036.47;;;7.58;98.01
1207;BME280;593;53.184;8.216;2024-03-06T09:39:11;102033.09;;;7.63;97.88
1207;BME280;593;53.184;8.216;2024-03-06T09:41:36;102032.84;;;7.64;96.76
1207;BME280;593;53.184;8.216;2024-03-06T09:44:03;102040.97;;;7.64;97.68
1207;BME280;593;53.184;8.216;2024-03-06T09:46:28;102039.53;;;7.62;97.29
1207;BME280;593;53.184;8.216;2024-03-06T09:48:54;102042.78;;;7.70;97.64
1207;BME280;593;53.184;8.216;2024-03-06T09:51:21;102055.28;;;7.71;96.59
1207;BME280;593;53.184;8.216;2024-03-06T09:53:46;102052.31;;;7.73;97.03
1207;BME280;593;53.184;8.216;2024-03-06T09:56:15;102052.66;;;7.76;96.46
1207;BME280;593;53.184;8.216;2024-03-06T09:58:40;102056.59;;;7.81;96.98
1207;BME280;593;53.184;8.216;2024-03-06T10:01:07;102064.84;;;7.86;96.63
1207;BME280;593;53.184;8.216;2024-03-06T10:03:33;102058.34;;;7.87;96.16
1207;BME280;593;53.184;8.216;2024-03-06T10:05:59;102059.56;;;7.91;96.16
1207;BME280;593;53.184;8.216;2024-03-06T10:08:28;102064.06;;;7.97;96.01
1207;BME280;593;53.184;8.216;2024-03-06T10:10:53;102061.59;;;7.95;95.83
1207;BME280;593;53.184;8.216;2024-03-06T10:13:25;102060.69;;;8.01;96.35
1207;BME280;593;53.184;8.216;2024-03-06T10:15:58;102070.56;;;8.07;96.07
1207;BME280;593;53.184;8.216;2024-03-06T10:18:27;102064.31;;;8.07;94.83
1207;BME280;593;53.184;8.216;2024-03-06T10:20:52;102072.56;;;8.12;94.43
1207;BME280;593;53.184;8.216;2024-03-06T10:23:19;102068.81;;;8.13;94.11
1207;BME280;593;53.184;8.216;2024-03-06T10:25:47;102058.44;;;8.10;94.97
1207;BME280;593;53.184;8.216;2024-03-06T10:28:21;102077.09;;;8.18;94.47
1207;BME280;593;53.184;8.216;2024-03-06T10:30:50;102067.41;;;8.22;95.25
1207;BME280;593;53.184;8.216;2024-03-06T10:33:18;102069.34;;;8.21;94.71
1207;BME280;593;53.184;8.216;2024-03-06T10:35:47;102079.25;;;8.27;94.32
1207;BME280;593;53.184;8.216;2024-03-06T10:38:15;102071.97;;;8.28;93.57
1207;BME280;593;53.184;8.216;2024-03-06T10:40:42;102075.97;;;8.37;92.81
1207;BME280;593;53.184;8.216;2024-03-06T10:43:10;102074.56;;;8.34;93.44
1207;BME280;593;53.184;8.216;2024-03-06T10:45:47;102081.53;;;8.42;92.47
1207;BME280;593;53.184;8.216;2024-03-06T10:48:16;102089.06;;;8.40;91.85
1207;BME280;593;53.184;8.216;2024-03-06T10:50:45;102092.75;;;8.46;91.57
1207;BME280;593;53.184;8.216;2024-03-06T10:53:13;102090.63;;;8.48;91.42
1207;BME280;593;53.184;8.216;2024-03-06T10:55:39;102089.31;;;8.50;90.41
1207;BME280;593;53.184;8.216;2024-03-06T10:58:06;102090.75;;;8.53;90.58
1207;BME280;593;53.184;8.216;2024-03-06T11:00:35;102093.25;;;8.54;90.13
1207;BME280;593;53.184;8.216;2024-03-06T11:03:07;102094.41;;;8.58;90.75
1207;BME280;593;53.184;8.216;2024-03-06T11:05:37;102094.06;;;8.66;91.23
1207;BME280;593;53.184;8.216;2024-03-06T11:08:10;102093.56;;;8.69;91.89
1207;BME280;593;53.184;8.216;2024-03-06T11:10:40;102086.53;;;8.68;90.89
1207;BME280;593;53.184;8.216;2024-03-06T11:13:21;102101.38;;;8.77;90.95
1207;BME280;593;53.184;8.216;2024-03-06T11:15:52;102090.19;;;8.74;90.58
1207;BME280;593;53.184;8.216;2024-03-06T11:27:02;102094.06;;;8.89;87.76
1207;BME280;593;53.184;8.216;2024-03-06T11:29:29;102102.81;;;8.91;88.25
1207;BME280;593;53.184;8.216;2024-03-06T11:32:06;102103.41;;;8.93;88.69
1207;BME280;593;53.184;8.216;2024-03-06T11:34:33;102103.53;;;8.98;88.34
1207;BME280;593;53.184;8.216;2024-03-06T11:37:03;102105.50;;;9.03;88.64
1207;BME280;593;53.184;8.216;2024-03-06T11:39:33;102104.47;;;9.04;88.94
1207;BME280;593;53.184;8.216;2024-03-06T11:42:02;102112.94;;;9.08;88.65
1207;BME280;593;53.184;8.216;2024-03-06T11:44:31;102107.88;;;9.11;88.76
1207;BME280;593;53.184;8.216;2024-03-06T11:49:29;102089.81;;;9.05;89.08
1207;BME280;593;53.184;8.216;2024-03-06T11:52:02;102103.28;;;9.12;89.17
1207;BME280;593;53.184;8.216;2024-03-06T11:54:29;102107.84;;;9.23;88.02
1207;BME280;593;53.184;8.216;2024-03-06T11:56:59;102106.34;;;9.27;86.73
1207;BME280;593;53.184;8.216;2024-03-06T11:59:26;102109.84;;;9.27;87.43
1207;BME280;593;53.184;8.216;2024-03-06T12:02:03;102096.66;;;9.19;87.84
1207;BME280;593;53.184;8.216;2024-03-06T12:04:35;102103.13;;;9.30;88.31
1207;BME280;593;53.184;8.216;2024-03-06T12:07:03;102100.66;;;9.28;88.23
1207;BME280;593;53.184;8.216;2024-03-06T12:09:36;102112.34;;;9.29;88.43
1207;BME280;593;53.184;8.216;2024-03-06T12:12:01;102112.69;;;9.32;88.30
1207;BME280;593;53.184;8.216;2024-03-06T12:14:28;102111.38;;;9.35;88.15
1207;BME280;593;53.184;8.216;2024-03-06T12:16:55;102118.00;;;9.39;88.33
1207;BME280;593;53.184;8.216;2024-03-06T12:19:27;102116.69;;;9.41;88.32
1207;BME280;593;53.184;8.216;2024-03-06T12:21:59;102117.53;;;9.42;86.99
1207;BME280;593;53.184;8.216;2024-03-06T12:24:24;102109.13;;;9.43;86.82
1207;BME280;593;53.184;8.216;2024-03-06T12:27:03;102104.63;;;9.49;87.27
1207;BME280;593;53.184;8.216;2024-03-06T12:29:30;102104.97;;;9.52;86.69
1207;BME280;593;53.184;8.216;2024-03-06T12:31:57;102111.22;;;9.53;86.32
1207;BME280;593;53.184;8.216;2024-03-06T12:34:23;102123.88;;;9.59;85.96
1207;BME280;593;53.184;8.216;2024-03-06T12:36:48;102111.91;;;9.60;85.79
1207;BME280;593;53.184;8.216;2024-03-06T12:39:17;102112.59;;;9.67;86.02
1207;BME280;593;53.184;8.216;2024-03-06T12:41:46;102114.28;;;9.68;84.21
1207;BME280;593;53.184;8.216;2024-03-06T12:44:12;102086.31;;;9.56;85.19
1207;BME280;593;53.184;8.216;2024-03-06T12:46:38;102112.97;;;9.71;85.59
1207;BME280;593;53.184;8.216;2024-03-06T12:49:04;102120.84;;;9.72;85.24
1207;BME280;593;53.184;8.216;2024-03-06T12:51:29;102116.63;;;9.76;85.51
1207;BME280;593;53.184;8.216;2024-03-06T12:53:55;102112.34;;;9.80;85.45
1207;BME280;593;53.184;8.216;2024-03-06T12:56:20;102111.38;;;9.86;84.39
1207;BME280;593;53.184;8.216;2024-03-06T12:58:46;102110.91;;;9.89;84.21
1207;BME280;593;53.184;8.216;2024-03-06T13:01:11;102103.81;;;9.88;85.76
1207;BME280;593;53.184;8.216;2024-03-06T13:03:37;102094.69;;;9.94;86.44
1207;BME280;593;53.184;8.216;2024-03-06T13:06:03;102109.06;;;10.06;87.69
1207;BME280;593;53.184;8.216;2024-03-06T13:08:30;102111.41;;;10.14;87.34
1207;BME280;593;53.184;8.216;2024-03-06T13:10:55;102108.78;;;10.19;88.37
1207;BME280;593;53.184;8.216;2024-03-06T13:13:21;102110.53;;;10.25;89.76
1207;BME280;593;53.184;8.216;2024-03-06T13:15:49;102113.91;;;10.32;90.91
1207;BME280;593;53.184;8.216;2024-03-06T13:18:15;102115.97;;;10.42;91.57
1207;BME280;593;53.184;8.216;2024-03-06T13:20:41;102117.72;;;10.48;91.92
1207;BME280;593;53.184;8.216;2024-03-06T13:23:06;102122.41;;;10.53;91.53
1207;BME280;593;53.184;8.216;2024-03-06T13:25:31;102116.84;;;10.59;91.50
1207;BME280;593;53.184;8.216;2024-03-06T13:27:57;102114.44;;;10.63;90.43
1207;BME280;593;53.184;8.216;2024-03-06T13:30:22;102117.63;;;10.60;89.30
1207;BME280;593;53.184;8.216;2024-03-06T13:32:49;102125.88;;;10.65;88.17
1207;BME280;593;53.184;8.216;2024-03-06T13:35:15;102119.56;;;10.59;87.38
1207;BME280;593;53.184;8.216;2024-03-06T13:37:44;102127.63;;;10.71;86.34
1207;BME280;593;53.184;8.216;2024-03-06T13:40:11;102118.81;;;10.64;87.05